createdAt,value
2023-05-14T00:00:08.754Z,6.17
2023-05-14T00:02:36.381Z,5.67
2023-05-14T00:05:04.052Z,10.33
2023-05-14T00:07:31.410Z,6.63
2023-05-14T00:09:58.790Z,4.93
2023-05-14T00:15:09.288Z,4.47
2023-05-14T00:17:38.316Z,4.17
2023-05-14T00:20:07.389Z,3.93
2023-05-14T00:22:36.599Z,4.37
2023-05-14T00:25:03.659Z,4.97
2023-05-14T00:27:32.041Z,10.87
2023-05-14T00:29:59.268Z,10.93
2023-05-14T00:40:15.162Z,5.77
2023-05-14T00:42:42.128Z,4.40
2023-05-14T00:45:10.390Z,5.03
2023-05-14T00:47:39.657Z,4.50
2023-05-14T00:50:08.478Z,8.57
2023-05-14T00:52:36.352Z,25.90
2023-05-14T00:55:06.655Z,18.67
2023-05-14T00:57:35.464Z,10.03
2023-05-14T01:05:08.908Z,8.67
2023-05-14T01:07:46.907Z,9.37
2023-05-14T01:10:19.278Z,10.80
2023-05-14T01:12:53.409Z,11.57
2023-05-14T01:15:24.859Z,18.00
2023-05-14T01:17:55.458Z,8.60
2023-05-14T01:20:23.432Z,5.10
2023-05-14T01:28:03.534Z,4.67
2023-05-14T01:30:34.631Z,4.27
2023-05-14T01:33:06.846Z,3.70
2023-05-14T01:35:34.322Z,3.30
2023-05-14T01:38:06.174Z,5.57
2023-05-14T01:40:33.933Z,4.70
2023-05-14T01:43:02.956Z,5.33
2023-05-14T01:48:10.199Z,4.50
2023-05-14T01:50:37.678Z,4.43
2023-05-14T01:53:05.099Z,4.00
2023-05-14T01:55:32.362Z,4.00
2023-05-14T01:57:59.898Z,4.70
2023-05-14T02:00:27.331Z,6.83
2023-05-14T02:02:54.521Z,5.80
2023-05-14T02:08:07.463Z,5.50
2023-05-14T02:10:35.158Z,4.03
2023-05-14T02:13:03.096Z,6.37
2023-05-14T02:15:30.213Z,4.63
2023-05-14T02:17:57.466Z,3.93
2023-05-14T02:20:24.895Z,8.60
2023-05-14T02:22:52.272Z,10.93
2023-05-14T02:25:20.624Z,6.27
2023-05-14T02:32:53.004Z,7.50
2023-05-14T02:35:20.030Z,5.37
2023-05-14T02:37:48.824Z,10.40
2023-05-14T02:40:16.196Z,6.03
2023-05-14T02:42:43.406Z,8.70
2023-05-14T02:45:11.091Z,7.20
2023-05-14T02:47:38.453Z,6.07
2023-05-14T02:52:59.625Z,9.87
2023-05-14T02:55:26.904Z,5.57
2023-05-14T02:57:54.071Z,5.20
2023-05-14T03:00:21.765Z,4.90
2023-05-14T03:02:49.631Z,3.73
2023-05-14T03:05:20.105Z,3.63
2023-05-14T03:07:47.359Z,3.20
2023-05-14T03:10:15.600Z,4.83
2023-05-14T03:17:47.379Z,3.93
2023-05-14T03:20:15.251Z,5.47
2023-05-14T03:22:42.325Z,4.07
2023-05-14T03:25:10.219Z,5.80
2023-05-14T03:27:37.687Z,4.30
2023-05-14T03:30:06.149Z,4.17
2023-05-14T03:32:33.409Z,4.23
2023-05-14T03:37:44.384Z,6.83
2023-05-14T03:40:12.871Z,10.57
2023-05-14T03:42:40.618Z,10.67
2023-05-14T03:45:09.304Z,4.17
2023-05-14T03:47:36.865Z,4.87
2023-05-14T03:50:04.593Z,5.80
2023-05-14T03:52:32.526Z,6.40
2023-05-14T03:55:01.547Z,7.60
2023-05-14T04:02:36.450Z,8.77
2023-05-14T04:05:04.118Z,9.83
2023-05-14T04:07:31.376Z,8.37
2023-05-14T04:10:00.381Z,13.13
2023-05-14T04:12:29.048Z,9.90
2023-05-14T04:14:57.981Z,10.43
2023-05-14T04:17:25.198Z,8.13
2023-05-14T04:24:58.637Z,11.90
2023-05-14T04:27:26.529Z,10.23
2023-05-14T04:29:53.689Z,9.00
2023-05-14T04:32:21.083Z,9.80
2023-05-14T04:34:47.972Z,8.83
2023-05-14T04:37:15.416Z,9.63
2023-05-14T04:39:43.034Z,11.50
2023-05-14T04:42:11.594Z,12.43
2023-05-14T04:49:42.940Z,9.90
2023-05-14T04:52:09.998Z,11.53
2023-05-14T04:54:37.305Z,9.07
2023-05-14T04:57:04.772Z,8.40
2023-05-14T04:59:31.986Z,9.10
2023-05-14T05:01:59.251Z,8.03
2023-05-14T05:04:26.688Z,8.17
2023-05-14T05:10:16.249Z,8.30
2023-05-14T05:12:43.480Z,8.07
2023-05-14T05:15:11.246Z,11.80
2023-05-14T05:17:38.508Z,10.50
2023-05-14T05:20:09.169Z,8.70
2023-05-14T05:22:37.174Z,15.40
2023-05-14T05:25:05.681Z,12.07
2023-05-14T05:30:57.653Z,8.80
2023-05-14T05:33:26.120Z,8.30
2023-05-14T05:35:53.638Z,9.13
2023-05-14T05:38:20.779Z,8.17
2023-05-14T05:40:48.809Z,7.53
2023-05-14T05:43:16.172Z,10.13
2023-05-14T05:45:43.006Z,7.90
2023-05-14T05:48:11.216Z,10.27
2023-05-14T05:55:43.594Z,6.03
2023-05-14T05:58:10.780Z,7.00
2023-05-14T06:00:38.541Z,16.63
2023-05-14T06:03:05.489Z,7.73
2023-05-14T06:05:33.141Z,8.03
2023-05-14T06:08:00.360Z,7.13
2023-05-14T06:10:27.831Z,7.40
2023-05-14T06:12:56.153Z,6.90
2023-05-14T06:20:28.648Z,4.93
2023-05-14T06:22:56.148Z,7.23
2023-05-14T06:25:23.928Z,4.37
2023-05-14T06:27:51.610Z,5.87
2023-05-14T06:30:18.951Z,6.97
2023-05-14T06:32:46.362Z,12.50
2023-05-14T06:35:14.526Z,5.73
2023-05-14T06:40:28.436Z,5.83
2023-05-14T06:42:55.417Z,5.70
2023-05-14T06:45:22.705Z,6.60
2023-05-14T06:47:49.905Z,8.70
2023-05-14T06:50:17.435Z,5.17
2023-05-14T06:52:44.662Z,4.10
2023-05-14T06:55:11.763Z,11.23
2023-05-14T06:57:41.035Z,5.70
2023-05-14T07:05:13.250Z,5.07
2023-05-14T07:07:40.761Z,4.60
2023-05-14T07:10:08.403Z,3.93
2023-05-14T07:12:35.671Z,4.73
2023-05-14T07:15:02.792Z,4.73
2023-05-14T07:17:30.388Z,6.17
2023-05-14T07:19:58.340Z,4.10
2023-05-14T07:25:14.958Z,3.90
2023-05-14T07:27:42.275Z,5.83
2023-05-14T07:30:10.362Z,5.60
2023-05-14T07:32:37.801Z,7.73
2023-05-14T07:35:05.767Z,4.43
2023-05-14T07:37:33.097Z,4.67
2023-05-14T07:40:00.407Z,4.20
2023-05-14T07:42:35.744Z,4.47
2023-05-14T07:50:11.279Z,3.77
2023-05-14T07:52:39.564Z,4.07
2023-05-14T07:55:08.063Z,3.30
2023-05-14T07:57:35.065Z,3.83
2023-05-14T08:00:02.536Z,7.17
2023-05-14T08:02:31.297Z,9.77
2023-05-14T08:04:58.846Z,3.40
2023-05-14T08:10:38.061Z,4.67
2023-05-14T08:13:09.416Z,3.30
2023-05-14T08:15:36.727Z,4.80
2023-05-14T08:18:12.134Z,2.63
2023-05-14T08:20:39.362Z,4.57
2023-05-14T08:23:09.134Z,3.27
2023-05-14T08:25:37.958Z,3.23
2023-05-14T08:30:45.352Z,4.30
2023-05-14T08:33:12.865Z,3.60
2023-05-14T08:35:40.308Z,4.07
2023-05-14T08:38:08.248Z,4.03
2023-05-14T08:40:35.599Z,4.13
2023-05-14T08:43:06.861Z,4.40
2023-05-14T08:45:37.936Z,3.60
2023-05-14T08:51:29.005Z,6.53
2023-05-14T08:53:58.678Z,2.47
2023-05-14T08:56:27.004Z,2.90
2023-05-14T08:58:54.049Z,3.90
2023-05-14T09:01:22.072Z,2.83
2023-05-14T09:03:50.578Z,5.97
2023-05-14T09:06:19.014Z,3.17
2023-05-14T09:11:42.375Z,2.90
2023-05-14T09:14:09.924Z,3.50
2023-05-14T09:16:37.530Z,4.23
2023-05-14T09:19:08.466Z,4.47
2023-05-14T09:21:36.869Z,2.73
2023-05-14T09:24:06.214Z,3.77
2023-05-14T09:26:35.795Z,4.43
2023-05-14T09:32:25.392Z,4.43
2023-05-14T09:34:53.967Z,3.33
2023-05-14T09:37:25.724Z,7.73
2023-05-14T09:39:53.742Z,4.07
2023-05-14T09:42:21.238Z,6.97
2023-05-14T09:44:49.045Z,6.27
2023-05-14T09:47:16.675Z,3.73
2023-05-14T09:55:35.056Z,5.77
2023-05-14T09:58:03.716Z,4.13
2023-05-14T10:00:32.386Z,3.73
2023-05-14T10:03:05.502Z,6.27
2023-05-14T10:05:39.263Z,3.33
2023-05-14T10:08:11.900Z,4.30
2023-05-14T10:10:41.258Z,3.30
2023-05-14T10:18:23.251Z,3.50
2023-05-14T10:21:10.735Z,5.83
2023-05-14T10:23:42.781Z,5.10
2023-05-14T10:26:14.059Z,3.43
2023-05-14T10:28:47.247Z,3.70
2023-05-14T10:31:19.311Z,3.60
2023-05-14T10:33:53.005Z,3.83
2023-05-14T10:42:32.044Z,3.33
2023-05-14T10:45:09.331Z,3.40
2023-05-14T10:47:38.834Z,2.67
2023-05-14T10:50:11.981Z,3.60
2023-05-14T10:52:44.191Z,3.50
2023-05-14T10:55:16.190Z,3.10
2023-05-14T10:57:47.210Z,3.87
2023-05-14T11:07:44.204Z,3.57
2023-05-14T11:10:13.252Z,3.43
2023-05-14T11:12:41.608Z,4.20
2023-05-14T11:15:13.904Z,2.93
2023-05-14T11:17:42.738Z,2.47
2023-05-14T11:20:11.881Z,5.70
2023-05-14T11:22:42.147Z,3.43
2023-05-14T11:30:19.856Z,5.07
2023-05-14T11:32:51.100Z,4.13
2023-05-14T11:35:20.698Z,3.00
2023-05-14T11:37:54.051Z,6.00
2023-05-14T11:40:23.927Z,3.60
2023-05-14T11:42:52.674Z,2.67
2023-05-14T11:45:27.099Z,3.83
2023-05-14T11:53:31.771Z,3.33
2023-05-14T11:56:01.120Z,3.00
2023-05-14T11:58:32.611Z,3.57
2023-05-14T12:01:03.637Z,3.73
2023-05-14T12:03:34.267Z,3.23
2023-05-14T12:06:06.728Z,4.67
2023-05-14T12:08:41.206Z,3.53
2023-05-14T12:17:08.472Z,3.23
2023-05-14T12:19:45.185Z,3.40
2023-05-14T12:22:18.140Z,2.23
2023-05-14T12:24:53.553Z,4.97
2023-05-14T12:27:24.803Z,2.93
2023-05-14T12:30:16.827Z,2.47
2023-05-14T12:32:53.753Z,2.77
2023-05-14T12:40:26.910Z,5.83
2023-05-14T12:42:57.003Z,2.83
2023-05-14T12:45:28.275Z,5.10
2023-05-14T12:47:57.594Z,3.10
2023-05-14T12:50:30.532Z,4.60
2023-05-14T12:52:58.072Z,2.97
2023-05-14T12:55:28.244Z,3.10
2023-05-14T13:05:10.189Z,4.97
2023-05-14T13:07:39.100Z,5.87
2023-05-14T13:10:08.955Z,3.67
2023-05-14T13:12:39.067Z,3.03
2023-05-14T13:15:11.511Z,3.27
2023-05-14T13:17:41.206Z,5.27
2023-05-14T13:20:19.009Z,3.03
2023-05-14T13:27:54.258Z,2.03
2023-05-14T13:30:21.477Z,4.40
2023-05-14T13:32:54.856Z,2.40
2023-05-14T13:35:25.878Z,2.03
2023-05-14T13:38:00.564Z,2.50
2023-05-14T13:40:31.899Z,1.83
2023-05-14T13:43:04.365Z,2.20
2023-05-14T13:48:14.229Z,2.60
2023-05-14T13:50:44.120Z,3.03
2023-05-14T13:53:13.697Z,4.77
2023-05-14T13:55:44.388Z,3.07
2023-05-14T13:58:14.123Z,4.13
2023-05-14T14:00:46.188Z,2.23
2023-05-14T14:03:17.947Z,2.53
2023-05-14T14:10:55.280Z,4.90
2023-05-14T14:13:26.983Z,4.07
2023-05-14T14:15:57.902Z,3.77
2023-05-14T14:18:27.949Z,2.60
2023-05-14T14:20:55.838Z,3.20
2023-05-14T14:23:27.040Z,3.13
2023-05-14T14:25:59.783Z,1.73
2023-05-14T14:28:38.203Z,2.40
2023-05-14T14:36:19.777Z,1.40
2023-05-14T14:38:51.465Z,1.77
2023-05-14T14:41:19.080Z,1.73
2023-05-14T14:43:52.141Z,2.50
2023-05-14T14:46:29.660Z,2.23
2023-05-14T14:49:01.494Z,1.80
2023-05-14T14:51:38.020Z,3.90
2023-05-14T15:01:29.988Z,1.83
2023-05-14T15:04:05.809Z,1.63
2023-05-14T15:06:35.709Z,2.90
2023-05-14T15:09:04.331Z,4.57
2023-05-14T15:11:37.263Z,1.73
2023-05-14T15:14:08.179Z,2.73
2023-05-14T15:16:41.541Z,2.50
2023-05-14T15:21:54.483Z,5.67
2023-05-14T15:24:27.852Z,1.80
2023-05-14T15:27:00.170Z,1.50
2023-05-14T15:29:36.003Z,1.60
2023-05-14T15:32:05.433Z,2.07
2023-05-14T15:34:35.235Z,3.27
2023-05-14T15:37:06.823Z,3.73
2023-05-14T15:44:39.816Z,1.30
2023-05-14T15:47:11.947Z,2.20
2023-05-14T15:49:46.747Z,2.67
2023-05-14T15:52:19.091Z,1.40
2023-05-14T15:54:52.238Z,1.57
2023-05-14T15:57:23.166Z,1.60
2023-05-14T15:59:54.296Z,1.20
2023-05-14T16:09:33.896Z,1.27
2023-05-14T16:12:04.553Z,1.20
2023-05-14T16:14:34.346Z,1.63
2023-05-14T16:17:06.856Z,1.10
2023-05-14T16:19:37.766Z,0.80
2023-05-14T16:22:09.957Z,3.20
2023-05-14T16:24:42.240Z,1.40
2023-05-14T16:29:54.016Z,2.80
2023-05-14T16:32:26.420Z,1.10
2023-05-14T16:34:59.159Z,1.33
2023-05-14T16:37:29.822Z,1.47
2023-05-14T16:40:00.902Z,1.10
2023-05-14T16:42:38.395Z,1.73
2023-05-14T16:45:11.613Z,1.20
2023-05-14T16:51:10.397Z,1.47
2023-05-14T16:53:41.400Z,1.60
2023-05-14T16:56:16.751Z,1.30
2023-05-14T16:58:48.414Z,1.50
2023-05-14T17:01:20.281Z,1.80
2023-05-14T17:03:50.791Z,1.40
2023-05-14T17:06:23.474Z,2.00
2023-05-14T17:11:54.607Z,4.17
2023-05-14T17:14:24.373Z,2.87
2023-05-14T17:16:54.253Z,2.03
2023-05-14T17:19:24.930Z,1.60
2023-05-14T17:21:56.470Z,2.20
2023-05-14T17:24:29.502Z,2.17
2023-05-14T17:27:03.488Z,1.40
2023-05-14T17:37:27.957Z,1.70
2023-05-14T17:39:58.869Z,2.40
2023-05-14T17:42:31.360Z,2.33
2023-05-14T17:44:59.968Z,2.77
2023-05-14T17:47:30.644Z,1.97
2023-05-14T17:50:01.795Z,1.87
2023-05-14T17:52:33.960Z,3.20
2023-05-14T17:59:24.527Z,2.80
2023-05-14T18:01:52.759Z,2.00
2023-05-14T18:04:21.455Z,4.37
2023-05-14T18:06:51.698Z,4.10
2023-05-14T18:09:20.672Z,2.50
2023-05-14T18:11:51.322Z,5.57
2023-05-14T18:14:19.590Z,2.97
2023-05-14T18:19:26.282Z,2.50
2023-05-14T18:21:56.304Z,2.20
2023-05-14T18:24:24.077Z,5.67
2023-05-14T18:26:51.523Z,4.90
2023-05-14T18:29:19.026Z,2.60
2023-05-14T18:31:47.538Z,3.33
2023-05-14T18:34:16.343Z,3.07
2023-05-14T18:39:24.334Z,2.63
2023-05-14T18:41:51.706Z,2.20
2023-05-14T18:44:19.688Z,3.10
2023-05-14T18:46:50.964Z,4.80
2023-05-14T18:49:21.137Z,2.30
2023-05-14T18:51:49.237Z,2.13
2023-05-14T18:54:19.084Z,3.30
2023-05-14T19:02:37.826Z,2.33
2023-05-14T19:05:05.688Z,2.50
2023-05-14T19:07:33.097Z,2.43
2023-05-14T19:10:01.785Z,2.50
2023-05-14T19:12:30.039Z,3.03
2023-05-14T19:14:57.463Z,3.03
2023-05-14T19:17:25.139Z,2.60
2023-05-14T19:27:55.230Z,3.03
2023-05-14T19:30:23.109Z,3.47
2023-05-14T19:32:50.781Z,2.63
2023-05-14T19:35:18.726Z,3.33
2023-05-14T19:37:49.510Z,2.60
2023-05-14T19:40:18.817Z,3.60
2023-05-14T19:42:47.417Z,5.10
2023-05-14T19:47:55.388Z,2.47
2023-05-14T19:50:22.844Z,3.30
2023-05-14T19:52:50.898Z,3.53
2023-05-14T19:55:18.916Z,2.53
2023-05-14T19:57:48.645Z,2.40
2023-05-14T20:00:16.833Z,2.50
2023-05-14T20:02:45.380Z,3.20
2023-05-14T20:05:16.117Z,2.50
2023-05-14T20:12:52.548Z,2.50
2023-05-14T20:15:20.296Z,1.83
2023-05-14T20:17:48.056Z,2.80
2023-05-14T20:20:17.826Z,2.50
2023-05-14T20:22:46.272Z,2.47
2023-05-14T20:25:15.008Z,3.77
2023-05-14T20:27:49.364Z,3.87
2023-05-14T20:32:58.088Z,2.03
2023-05-14T20:35:26.835Z,2.73
2023-05-14T20:37:55.114Z,2.63
2023-05-14T20:40:23.472Z,3.70
2023-05-14T20:42:51.866Z,2.50
2023-05-14T20:45:22.451Z,4.97
2023-05-14T20:47:49.901Z,2.60
2023-05-14T20:52:59.290Z,4.17
2023-05-14T20:55:27.995Z,4.27
2023-05-14T20:57:55.512Z,2.63
2023-05-14T21:00:22.979Z,5.27
2023-05-14T21:02:51.203Z,3.10
2023-05-14T21:05:20.187Z,3.53
2023-05-14T21:07:47.489Z,3.93
2023-05-14T21:13:11.284Z,2.20
2023-05-14T21:15:38.577Z,1.97
2023-05-14T21:18:07.172Z,4.10
2023-05-14T21:20:34.855Z,2.73
2023-05-14T21:23:02.307Z,2.17
2023-05-14T21:25:30.909Z,1.73
2023-05-14T21:27:59.940Z,2.60
2023-05-14T21:38:15.820Z,2.90
2023-05-14T21:40:43.423Z,4.07
2023-05-14T21:43:10.675Z,2.93
2023-05-14T21:45:37.852Z,3.33
2023-05-14T21:48:05.746Z,3.00
2023-05-14T21:50:33.203Z,4.30
2023-05-14T21:53:00.796Z,7.47
2023-05-14T21:58:11.553Z,3.00
2023-05-14T22:00:39.582Z,3.33
2023-05-14T22:03:06.771Z,5.13
2023-05-14T22:05:34.267Z,2.77
2023-05-14T22:08:01.317Z,4.13
2023-05-14T22:10:28.267Z,5.30
2023-05-14T22:12:55.943Z,2.83
2023-05-14T22:18:04.634Z,2.73
2023-05-14T22:20:31.852Z,2.43
2023-05-14T22:22:59.482Z,2.63
2023-05-14T22:25:27.220Z,3.70
2023-05-14T22:27:54.617Z,5.07
2023-05-14T22:30:22.332Z,2.47
2023-05-14T22:32:49.542Z,3.60
2023-05-14T22:40:16.062Z,3.03
2023-05-14T22:42:43.453Z,3.30
2023-05-14T22:45:11.207Z,3.37
2023-05-14T22:47:38.761Z,4.97
2023-05-14T22:50:10.905Z,3.17
2023-05-14T22:52:38.505Z,3.27
2023-05-14T22:55:06.676Z,3.37
2023-05-14T23:00:58.411Z,4.17
2023-05-14T23:03:25.636Z,4.27
2023-05-14T23:05:53.156Z,2.30
2023-05-14T23:08:20.527Z,3.57
2023-05-14T23:10:47.797Z,2.60
2023-05-14T23:13:14.964Z,5.37
2023-05-14T23:15:42.996Z,3.33
2023-05-14T23:18:11.435Z,2.30
2023-05-14T23:25:43.981Z,3.70
2023-05-14T23:28:12.515Z,3.23
2023-05-14T23:30:39.415Z,3.53
2023-05-14T23:33:06.732Z,2.87
2023-05-14T23:35:34.229Z,3.30
2023-05-14T23:38:01.653Z,3.20
2023-05-14T23:40:28.931Z,3.30
2023-05-14T23:42:58.994Z,3.60
2023-05-14T23:50:31.028Z,4.47
2023-05-14T23:52:58.028Z,2.70
2023-05-14T23:55:25.571Z,2.77
2023-05-14T23:57:53.079Z,3.27
